createdAt,value
2022-12-01T00:01:16.146Z,11.05
2022-12-01T00:03:43.191Z,10.73
2022-12-01T00:06:15.933Z,11.85
2022-12-01T00:09:02.184Z,13.18
2022-12-01T00:11:28.732Z,11.38
2022-12-01T00:13:55.329Z,12.88
2022-12-01T00:16:22.190Z,11.60
2022-12-01T00:18:53.437Z,10.55
2022-12-01T00:21:23.698Z,12.05
2022-12-01T00:23:53.130Z,12.88
2022-12-01T00:26:21.933Z,12.38
2022-12-01T00:28:50.357Z,11.90
2022-12-01T00:31:17.495Z,11.90
2022-12-01T00:33:44.044Z,10.93
2022-12-01T00:36:10.725Z,12.60
2022-12-01T00:38:37.859Z,13.50
2022-12-01T00:41:05.221Z,12.18
2022-12-01T00:43:32.467Z,14.88
2022-12-01T00:45:59.298Z,11.75
2022-12-01T00:48:25.906Z,13.23
2022-12-01T00:50:54.112Z,12.15
2022-12-01T00:53:21.035Z,11.93
2022-12-01T00:55:48.101Z,13.15
2022-12-01T00:58:14.944Z,13.80
2022-12-01T01:00:42.894Z,11.18
2022-12-01T01:03:10.854Z,11.82
2022-12-01T01:05:42.211Z,12.80
2022-12-01T01:08:14.860Z,13.00
2022-12-01T01:10:44.089Z,12.70
2022-12-01T01:13:12.483Z,14.68
2022-12-01T01:15:40.206Z,14.10
2022-12-01T01:18:09.555Z,13.20
2022-12-01T01:20:36.157Z,13.45
2022-12-01T01:23:03.595Z,15.45
2022-12-01T01:25:32.260Z,13.55
2022-12-01T01:27:59.308Z,14.95
2022-12-01T01:30:26.305Z,13.98
2022-12-01T01:32:52.839Z,13.93
2022-12-01T01:35:19.354Z,16.65
2022-12-01T01:37:46.356Z,12.10
2022-12-01T01:40:12.926Z,16.05
2022-12-01T01:42:39.496Z,13.20
2022-12-01T01:45:19.527Z,16.25
2022-12-01T01:47:46.133Z,13.65
2022-12-01T01:50:17.045Z,14.98
2022-12-01T01:52:48.745Z,15.63
2022-12-01T01:55:16.368Z,14.40
2022-12-01T01:57:44.761Z,14.35
2022-12-01T02:00:14.685Z,14.77
2022-12-01T02:02:46.015Z,16.33
2022-12-01T02:05:24.107Z,14.15
2022-12-01T02:07:53.896Z,12.98
2022-12-01T02:10:24.527Z,16.25
2022-12-01T02:13:08.747Z,19.15
2022-12-01T02:15:44.803Z,13.55
2022-12-01T02:18:43.905Z,14.95
2022-12-01T02:21:22.638Z,14.23
2022-12-01T02:24:10.844Z,15.13
2022-12-01T02:27:21.664Z,15.02
2022-12-01T02:30:16.694Z,14.85
2022-12-01T02:32:48.900Z,16.48
2022-12-01T02:35:28.422Z,14.18
2022-12-01T02:38:14.286Z,14.57
2022-12-01T02:40:43.290Z,14.93
2022-12-01T02:43:14.121Z,15.45
2022-12-01T02:45:54.242Z,16.80
2022-12-01T02:48:33.808Z,16.00
2022-12-01T02:51:07.886Z,14.75
2022-12-01T02:53:35.242Z,14.60
2022-12-01T02:56:07.139Z,15.80
2022-12-01T02:58:33.689Z,14.50
2022-12-01T03:01:18.575Z,14.90
2022-12-01T03:04:01.963Z,16.65
2022-12-01T03:06:44.156Z,14.32
2022-12-01T03:09:38.538Z,17.23
2022-12-01T03:12:10.849Z,15.65
2022-12-01T03:14:45.860Z,14.60
2022-12-01T03:17:17.354Z,14.40
2022-12-01T03:19:50.859Z,14.98
2022-12-01T03:22:25.802Z,14.45
2022-12-01T03:24:54.654Z,15.95
2022-12-01T03:27:25.948Z,16.05
2022-12-01T03:29:56.368Z,13.93
2022-12-01T03:32:31.988Z,17.45
2022-12-01T03:35:16.173Z,16.48
2022-12-01T03:37:53.526Z,18.10
2022-12-01T03:40:25.573Z,16.27
2022-12-01T03:43:04.313Z,15.95
2022-12-01T03:45:34.102Z,16.10
2022-12-01T03:48:01.048Z,16.52
2022-12-01T03:50:48.448Z,14.93
2022-12-01T03:53:21.596Z,14.35
2022-12-01T03:55:56.685Z,17.40
2022-12-01T03:58:28.792Z,15.95
2022-12-01T04:00:57.611Z,15.30
2022-12-01T04:03:26.675Z,17.95
2022-12-01T04:05:54.244Z,15.60
2022-12-01T04:08:21.230Z,14.55
2022-12-01T04:10:48.228Z,15.45
2022-12-01T04:13:23.270Z,17.73
2022-12-01T04:15:52.027Z,14.95
2022-12-01T04:18:20.228Z,16.10
2022-12-01T04:20:48.594Z,18.40
2022-12-01T04:23:35.568Z,16.35
2022-12-01T04:26:04.365Z,15.35
2022-12-01T04:28:31.732Z,16.30
2022-12-01T04:30:58.387Z,16.85
2022-12-01T04:33:24.986Z,15.32
2022-12-01T04:36:00.117Z,17.15
2022-12-01T04:38:30.547Z,15.55
2022-12-01T04:40:58.112Z,18.00
2022-12-01T04:43:24.819Z,15.88
2022-12-01T04:45:51.880Z,16.30
2022-12-01T04:48:18.519Z,17.40
2022-12-01T04:50:45.017Z,17.38
2022-12-01T04:53:12.040Z,15.48
2022-12-01T04:55:39.308Z,16.45
2022-12-01T04:58:06.276Z,16.77
2022-12-01T05:00:33.377Z,16.58
2022-12-01T05:03:01.017Z,18.10
2022-12-01T05:05:28.177Z,17.17
2022-12-01T05:07:54.831Z,15.50
2022-12-01T05:10:22.278Z,18.42
2022-12-01T05:12:49.425Z,15.30
2022-12-01T05:15:16.702Z,17.80
2022-12-01T05:17:43.963Z,20.73
2022-12-01T05:20:38.369Z,15.15
2022-12-01T05:23:06.562Z,16.08
2022-12-01T05:25:34.025Z,17.08
2022-12-01T05:28:01.036Z,17.92
2022-12-01T05:30:28.986Z,16.80
2022-12-01T05:32:55.706Z,16.70
2022-12-01T05:35:22.706Z,15.48
2022-12-01T05:37:49.208Z,16.27
2022-12-01T05:40:15.923Z,17.23
2022-12-01T05:42:42.967Z,17.10
2022-12-01T05:45:10.071Z,16.15
2022-12-01T05:47:37.118Z,19.65
2022-12-01T05:50:06.022Z,17.63
2022-12-01T05:52:36.832Z,17.15
2022-12-01T05:55:04.718Z,18.38
2022-12-01T05:57:32.521Z,16.20
2022-12-01T05:59:59.268Z,16.40
2022-12-01T06:02:29.046Z,15.55
2022-12-01T06:04:55.605Z,17.08
2022-12-01T06:07:23.606Z,16.08
2022-12-01T06:09:50.433Z,16.50
2022-12-01T06:12:17.648Z,18.40
2022-12-01T06:14:44.679Z,16.00
2022-12-01T06:17:12.204Z,15.85
2022-12-01T06:19:39.301Z,16.75
2022-12-01T06:22:06.397Z,16.27
2022-12-01T06:24:32.912Z,16.50
2022-12-01T06:27:00.011Z,17.58
2022-12-01T06:29:26.623Z,14.38
2022-12-01T06:31:53.219Z,16.23
2022-12-01T06:34:20.295Z,14.45
2022-12-01T06:36:46.812Z,18.17
2022-12-01T06:39:16.084Z,12.90
2022-12-01T06:41:43.591Z,16.63
2022-12-01T06:44:11.624Z,14.75
2022-12-01T06:46:38.203Z,15.80
2022-12-01T06:49:05.037Z,15.30
2022-12-01T06:51:33.849Z,16.35
2022-12-01T06:54:05.239Z,16.13
2022-12-01T06:56:32.301Z,16.92
2022-12-01T06:58:59.121Z,18.55
2022-12-01T07:01:26.741Z,12.98
2022-12-01T07:03:53.937Z,14.30
2022-12-01T07:06:21.236Z,17.75
2022-12-01T07:08:47.796Z,23.48
2022-12-01T07:11:15.730Z,17.42
2022-12-01T07:13:45.443Z,17.42
2022-12-01T07:16:12.432Z,17.20
2022-12-01T07:18:41.014Z,16.17
2022-12-01T07:21:11.438Z,17.17
2022-12-01T07:23:38.054Z,16.67
2022-12-01T07:26:07.403Z,15.82
2022-12-01T07:28:34.328Z,15.15
2022-12-01T07:31:04.269Z,19.17
2022-12-01T07:33:31.321Z,16.77
2022-12-01T07:35:58.318Z,16.08
2022-12-01T07:38:25.306Z,18.63
2022-12-01T07:40:52.366Z,20.10
2022-12-01T07:43:18.894Z,21.90
2022-12-01T07:45:45.533Z,21.30
2022-12-01T07:48:12.148Z,19.50
2022-12-01T07:50:39.200Z,22.58
2022-12-01T07:53:06.142Z,24.67
2022-12-01T07:55:32.707Z,19.83
2022-12-01T07:58:00.670Z,23.48
2022-12-01T08:00:27.401Z,22.90
2022-12-01T08:02:54.735Z,22.40
2022-12-01T08:05:21.813Z,26.45
2022-12-01T08:07:48.943Z,22.15
2022-12-01T08:10:15.705Z,30.20
2022-12-01T08:12:43.606Z,33.13
2022-12-01T08:15:10.579Z,23.27
2022-12-01T08:17:37.141Z,24.05
2022-12-01T08:20:04.487Z,28.52
2022-12-01T08:22:31.065Z,29.98
2022-12-01T08:24:57.555Z,26.05
2022-12-01T08:27:24.642Z,31.90
2022-12-01T08:29:51.394Z,29.63
2022-12-01T08:32:18.508Z,34.75
2022-12-01T08:34:49.334Z,24.08
2022-12-01T08:37:19.595Z,25.77
2022-12-01T08:39:46.144Z,25.25
2022-12-01T08:42:13.098Z,24.35
2022-12-01T08:44:39.855Z,24.38
2022-12-01T08:47:06.642Z,22.70
2022-12-01T08:49:33.269Z,24.58
2022-12-01T08:51:59.805Z,25.13
2022-12-01T08:54:26.953Z,22.48
2022-12-01T08:56:53.503Z,23.05
2022-12-01T08:59:20.095Z,22.45
2022-12-01T09:01:53.247Z,20.80
2022-12-01T09:04:21.810Z,21.98
2022-12-01T09:06:50.477Z,22.70
2022-12-01T09:09:23.580Z,20.48
2022-12-01T09:11:52.360Z,21.88
2022-12-01T09:14:21.088Z,19.75
2022-12-01T09:16:49.933Z,18.88
2022-12-01T09:19:24.023Z,18.35
2022-12-01T09:21:52.463Z,19.92
2022-12-01T09:24:19.477Z,19.08
2022-12-01T09:26:46.192Z,18.83
2022-12-01T09:29:15.275Z,18.75
2022-12-01T09:31:43.192Z,20.70
2022-12-01T09:34:20.298Z,18.60
2022-12-01T09:36:47.790Z,16.05
2022-12-01T09:39:20.134Z,17.67
2022-12-01T09:41:48.214Z,17.52
2022-12-01T09:44:34.369Z,20.02
2022-12-01T09:47:11.915Z,16.60
2022-12-01T09:50:03.519Z,19.33
2022-12-01T09:52:38.519Z,21.90
2022-12-01T09:55:11.917Z,18.10
2022-12-01T09:57:40.392Z,17.60
2022-12-01T10:00:15.938Z,19.27
2022-12-01T10:03:06.565Z,14.93
2022-12-01T10:06:24.617Z,15.43
2022-12-01T10:08:42.468Z,16.65
2022-12-01T10:11:24.553Z,17.52
2022-12-01T10:13:51.162Z,18.08
2022-12-01T10:16:29.125Z,22.25
2022-12-01T10:19:01.290Z,15.30
2022-12-01T10:21:30.893Z,16.63
2022-12-01T10:24:24.151Z,17.83
2022-12-01T10:27:26.018Z,14.40
2022-12-01T10:30:08.855Z,14.55
2022-12-01T10:32:58.736Z,16.42
2022-12-01T10:35:36.023Z,15.60
2022-12-01T10:38:06.892Z,17.50
2022-12-01T10:40:36.857Z,15.18
2022-12-01T10:43:03.910Z,13.57
2022-12-01T10:45:40.638Z,14.95
2022-12-01T10:48:15.846Z,15.82
2022-12-01T10:50:52.326Z,15.27
2022-12-01T10:53:33.629Z,12.18
2022-12-01T10:56:18.367Z,15.65
2022-12-01T10:58:51.373Z,18.08
2022-12-01T11:01:26.893Z,12.63
2022-12-01T11:04:21.764Z,16.35
2022-12-01T11:06:51.589Z,13.02
2022-12-01T11:09:26.178Z,14.65
2022-12-01T11:12:01.739Z,17.33
2022-12-01T11:14:41.008Z,14.93
2022-12-01T11:17:25.080Z,13.27
2022-12-01T11:19:52.482Z,12.43
2022-12-01T11:22:29.111Z,12.88
2022-12-01T11:25:02.979Z,17.08
2022-12-01T11:27:35.064Z,13.65
2022-12-01T11:30:06.725Z,11.95
2022-12-01T11:32:37.996Z,13.98
2022-12-01T11:35:18.395Z,12.45
2022-12-01T11:38:13.161Z,13.27
2022-12-01T11:40:51.642Z,12.50
2022-12-01T11:43:53.268Z,11.98
2022-12-01T11:46:46.245Z,12.48
2022-12-01T11:49:22.073Z,14.00
2022-12-01T11:51:49.294Z,11.80
2022-12-01T11:54:24.549Z,13.40
2022-12-01T11:57:25.318Z,12.98
2022-12-01T11:59:39.661Z,11.02
2022-12-01T12:02:27.441Z,13.95
2022-12-01T12:05:06.633Z,12.80
2022-12-01T12:07:54.543Z,12.80
2022-12-01T12:10:31.665Z,12.02
2022-12-01T12:13:16.944Z,12.63
2022-12-01T12:16:11.886Z,11.07
2022-12-01T12:19:03.502Z,11.32
2022-12-01T12:22:18.255Z,10.85
2022-12-01T12:25:00.496Z,11.70
2022-12-01T12:28:26.881Z,10.77
2022-12-01T12:31:18.779Z,13.40
2022-12-01T12:34:19.324Z,12.75
2022-12-01T12:36:58.636Z,11.52
2022-12-01T12:40:03.406Z,10.88
2022-12-01T12:42:59.111Z,9.20
2022-12-01T12:45:45.134Z,9.02
2022-12-01T12:48:11.664Z,11.13
2022-12-01T12:51:03.506Z,10.13
2022-12-01T12:53:41.540Z,12.35
2022-12-01T12:56:12.820Z,11.07
2022-12-01T12:58:58.215Z,13.07
2022-12-01T13:02:03.036Z,11.87
2022-12-01T13:04:40.632Z,11.07
2022-12-01T13:07:14.735Z,9.52
2022-12-01T13:09:49.180Z,9.32
2022-12-01T13:12:25.437Z,9.35
2022-12-01T13:15:16.467Z,12.35
2022-12-01T13:17:49.769Z,10.15
2022-12-01T13:20:20.416Z,10.40
2022-12-01T13:22:48.121Z,10.20
2022-12-01T13:25:19.419Z,9.60
2022-12-01T13:27:47.664Z,10.60
2022-12-01T13:30:24.706Z,9.65
2022-12-01T13:33:01.349Z,9.07
2022-12-01T13:35:32.227Z,8.68
2022-12-01T13:38:31.796Z,9.43
2022-12-01T13:41:20.399Z,8.15
2022-12-01T13:44:00.671Z,8.70
2022-12-01T13:46:34.137Z,10.98
2022-12-01T13:49:04.495Z,8.48
2022-12-01T13:52:14.169Z,8.75
2022-12-01T13:55:01.178Z,8.07
2022-12-01T13:57:33.247Z,9.05
2022-12-01T13:59:59.709Z,9.02
2022-12-01T14:02:28.766Z,8.23
2022-12-01T14:04:55.451Z,10.05
2022-12-01T14:07:36.024Z,8.00
2022-12-01T14:10:30.111Z,7.97
2022-12-01T14:13:01.854Z,9.05
2022-12-01T14:15:42.369Z,10.07
2022-12-01T14:18:18.433Z,11.30
2022-12-01T14:23:13.169Z,8.13
2022-12-01T14:25:41.321Z,8.85
2022-12-01T14:28:16.895Z,8.00
2022-12-01T14:30:46.434Z,8.65
2022-12-01T14:33:51.149Z,7.85
2022-12-01T14:36:23.506Z,8.18
2022-12-01T14:39:03.917Z,7.88
2022-12-01T14:41:37.003Z,7.63
2022-12-01T14:44:12.799Z,7.45
2022-12-01T14:49:33.066Z,7.88
2022-12-01T14:52:05.542Z,8.25
2022-12-01T14:54:44.766Z,7.65
2022-12-01T14:57:16.947Z,6.70
2022-12-01T14:59:44.605Z,6.88
2022-12-01T15:02:12.607Z,8.52
2022-12-01T15:05:09.813Z,7.97
2022-12-01T15:07:39.457Z,10.95
2022-12-01T15:10:07.868Z,8.27
2022-12-01T15:12:34.865Z,6.43
2022-12-01T15:15:02.707Z,8.43
2022-12-01T15:17:31.249Z,7.65
2022-12-01T15:19:59.253Z,6.10
2022-12-01T15:22:31.056Z,6.68
2022-12-01T15:25:13.859Z,6.97
2022-12-01T15:27:40.504Z,5.85
2022-12-01T15:30:13.553Z,7.00
2022-12-01T15:32:45.727Z,6.00
2022-12-01T15:35:20.177Z,7.60
2022-12-01T15:37:47.040Z,6.75
2022-12-01T15:41:06.055Z,7.03
2022-12-01T15:43:17.174Z,8.55
2022-12-01T15:45:49.443Z,6.28
2022-12-01T15:48:24.407Z,7.18
2022-12-01T15:51:20.159Z,6.83
2022-12-01T15:54:16.188Z,6.17
2022-12-01T15:56:42.822Z,7.22
2022-12-01T15:59:12.316Z,6.63
2022-12-01T16:01:40.570Z,6.65
2022-12-01T16:04:17.640Z,6.70
2022-12-01T16:06:54.379Z,5.63
2022-12-01T16:09:26.315Z,7.22
2022-12-01T16:12:14.423Z,5.57
2022-12-01T16:15:06.851Z,6.03
2022-12-01T16:17:51.017Z,5.47
2022-12-01T16:20:26.257Z,6.38
2022-12-01T16:22:59.089Z,5.68
2022-12-01T16:25:32.959Z,5.78
2022-12-01T16:27:59.813Z,7.05
2022-12-01T16:30:48.940Z,14.73
2022-12-01T16:33:19.566Z,6.80
2022-12-01T16:35:46.157Z,6.95
2022-12-01T16:38:20.590Z,4.68
2022-12-01T16:40:49.528Z,6.03
2022-12-01T16:43:21.229Z,5.85
2022-12-01T16:45:55.444Z,5.68
2022-12-01T16:48:22.324Z,5.63
2022-12-01T16:50:50.789Z,5.82
2022-12-01T16:53:17.869Z,5.32
2022-12-01T16:55:50.157Z,6.97
2022-12-01T16:58:17.207Z,6.30
2022-12-01T17:00:43.986Z,5.93
2022-12-01T17:03:16.289Z,5.20
2022-12-01T17:05:43.040Z,8.32
2022-12-01T17:08:09.639Z,5.97
2022-12-01T17:10:40.002Z,4.55
2022-12-01T17:13:06.574Z,6.10
2022-12-01T17:15:33.236Z,6.15
2022-12-01T17:18:00.270Z,6.10
2022-12-01T17:20:26.854Z,6.20
2022-12-01T17:22:53.380Z,6.78
2022-12-01T17:25:20.040Z,6.63
2022-12-01T17:27:46.715Z,6.22
2022-12-01T17:30:13.492Z,5.90
2022-12-01T17:32:40.068Z,5.82
2022-12-01T17:35:06.986Z,6.30
2022-12-01T17:37:33.701Z,4.65
2022-12-01T17:40:00.299Z,6.15
2022-12-01T17:42:26.951Z,4.97
2022-12-01T17:44:53.468Z,5.38
2022-12-01T17:47:20.466Z,6.35
2022-12-01T17:49:46.984Z,8.50
2022-12-01T17:52:14.196Z,6.43
2022-12-01T17:54:40.803Z,6.85
2022-12-01T17:57:07.525Z,5.88
2022-12-01T17:59:36.722Z,5.65
2022-12-01T18:02:06.872Z,5.60
2022-12-01T18:04:34.108Z,5.85
2022-12-01T18:07:00.704Z,7.20
2022-12-01T18:09:27.745Z,6.00
2022-12-01T18:11:56.290Z,7.63
2022-12-01T18:14:24.117Z,5.97
2022-12-01T18:16:51.653Z,6.00
2022-12-01T18:19:19.600Z,7.63
2022-12-01T18:21:46.829Z,6.18
2022-12-01T18:24:13.489Z,5.72
2022-12-01T18:26:40.988Z,6.15
2022-12-01T18:29:12.862Z,6.55
2022-12-01T18:31:40.730Z,6.13
2022-12-01T18:34:09.037Z,6.88
2022-12-01T18:36:37.707Z,6.47
2022-12-01T18:39:06.779Z,6.00
2022-12-01T18:41:34.457Z,6.95
2022-12-01T18:44:01.169Z,7.20
2022-12-01T18:46:27.823Z,7.93
2022-12-01T18:49:02.937Z,5.75
2022-12-01T18:51:31.148Z,8.85
2022-12-01T18:53:59.440Z,6.40
2022-12-01T18:56:26.737Z,7.47
2022-12-01T18:58:58.379Z,7.28
2022-12-01T19:01:27.777Z,6.45
2022-12-01T19:03:55.761Z,8.50
2022-12-01T19:06:22.695Z,6.70
2022-12-01T19:08:49.335Z,7.32
2022-12-01T19:11:16.627Z,6.07
2022-12-01T19:13:43.837Z,7.50
2022-12-01T19:16:13.818Z,7.70
2022-12-01T19:18:40.453Z,5.43
2022-12-01T19:21:10.805Z,8.05
2022-12-01T19:23:38.267Z,7.78
2022-12-01T19:26:11.120Z,6.60
2022-12-01T19:28:38.477Z,7.30
2022-12-01T19:31:11.222Z,6.03
2022-12-01T19:33:38.192Z,6.57
2022-12-01T19:36:10.308Z,5.95
2022-12-01T19:38:36.985Z,8.55
2022-12-01T19:41:03.776Z,6.43
2022-12-01T19:43:30.336Z,5.25
2022-12-01T19:45:56.894Z,4.80
2022-12-01T19:48:23.525Z,6.35
2022-12-01T19:50:50.526Z,6.38
2022-12-01T19:53:17.088Z,5.63
2022-12-01T19:55:43.632Z,7.13
2022-12-01T19:58:10.224Z,7.03
2022-12-01T20:00:36.880Z,6.32
2022-12-01T20:03:03.889Z,5.97
2022-12-01T20:05:32.518Z,5.72
2022-12-01T20:07:59.198Z,5.47
2022-12-01T20:10:26.250Z,6.40
2022-12-01T20:12:52.915Z,5.22
2022-12-01T20:15:19.624Z,5.40
2022-12-01T20:17:46.237Z,5.30
2022-12-01T20:20:13.186Z,5.88
2022-12-01T20:22:40.744Z,7.97
2022-12-01T20:25:09.494Z,6.60
2022-12-01T20:27:36.446Z,5.43
2022-12-01T20:30:03.074Z,4.97
2022-12-01T20:32:29.694Z,4.68
2022-12-01T20:34:56.250Z,5.60
2022-12-01T20:37:22.821Z,5.72
2022-12-01T20:39:49.819Z,5.80
2022-12-01T20:42:19.302Z,8.23
2022-12-01T20:44:46.417Z,5.05
2022-12-01T20:47:14.643Z,5.78
2022-12-01T20:49:41.201Z,5.25
2022-12-01T20:52:07.781Z,6.03
2022-12-01T20:54:34.838Z,5.82
2022-12-01T20:57:01.532Z,5.97
2022-12-01T20:59:28.518Z,5.72
2022-12-01T21:01:55.476Z,6.15
2022-12-01T21:04:22.589Z,6.82
2022-12-01T21:06:50.041Z,5.45
2022-12-01T21:09:16.884Z,5.97
2022-12-01T21:12:06.829Z,5.40
2022-12-01T21:14:36.807Z,6.50
2022-12-01T21:17:29.820Z,5.82
2022-12-01T21:20:01.657Z,5.15
2022-12-01T21:22:28.281Z,7.45
2022-12-01T21:25:03.304Z,5.80
2022-12-01T21:27:30.505Z,6.00
2022-12-01T21:29:57.506Z,6.40
2022-12-01T21:32:31.839Z,7.15
2022-12-01T21:35:07.817Z,5.40
2022-12-01T21:37:34.848Z,6.60
2022-12-01T21:40:01.930Z,6.30
2022-12-01T21:42:31.410Z,6.38
2022-12-01T21:44:58.464Z,6.78
2022-12-01T21:47:30.135Z,5.88
2022-12-01T21:49:58.928Z,6.63
2022-12-01T21:52:34.549Z,6.43
2022-12-01T21:55:30.740Z,6.65
2022-12-01T21:57:57.245Z,8.05
2022-12-01T22:00:27.138Z,6.50
2022-12-01T22:03:06.219Z,7.65
2022-12-01T22:05:42.216Z,5.15
2022-12-01T22:08:15.067Z,7.60
2022-12-01T22:10:59.006Z,7.03
2022-12-01T22:13:42.022Z,6.78
2022-12-01T22:16:34.995Z,7.93
2022-12-01T22:19:16.529Z,8.65
2022-12-01T22:21:48.115Z,8.60
2022-12-01T22:24:20.496Z,7.32
2022-12-01T22:26:49.852Z,7.85
2022-12-01T22:29:29.440Z,7.63
2022-12-01T22:32:16.228Z,8.02
2022-12-01T22:34:50.295Z,8.13
2022-12-01T22:37:25.365Z,9.50
2022-12-01T22:39:55.503Z,7.13
2022-12-01T22:42:43.242Z,7.85
2022-12-01T22:45:24.418Z,8.07
2022-12-01T22:47:56.353Z,8.65
2022-12-01T22:50:33.041Z,7.38
2022-12-01T22:53:09.517Z,8.07
2022-12-01T22:55:36.768Z,8.15
2022-12-01T22:58:25.508Z,9.73
2022-12-01T23:00:53.984Z,8.70
2022-12-01T23:03:21.159Z,10.07
2022-12-01T23:05:55.388Z,9.57
2022-12-01T23:08:24.239Z,9.43
2022-12-01T23:10:52.604Z,10.55
2022-12-01T23:13:22.250Z,10.00
2022-12-01T23:15:53.613Z,11.68
2022-12-01T23:18:23.824Z,12.93
2022-12-01T23:20:55.952Z,10.98
2022-12-01T23:23:34.497Z,10.38
2022-12-01T23:26:07.306Z,11.77
2022-12-01T23:28:37.047Z,11.32
2022-12-01T23:31:04.133Z,12.65
2022-12-01T23:33:35.080Z,13.30
2022-12-01T23:36:19.327Z,12.23
2022-12-01T23:38:52.878Z,15.23
2022-12-01T23:41:28.767Z,14.07
2022-12-01T23:46:26.936Z,13.40
2022-12-01T23:48:59.159Z,13.10
2022-12-01T23:51:30.920Z,14.77
2022-12-01T23:54:00.933Z,13.60
2022-12-01T23:56:31.017Z,12.35
2022-12-01T23:59:00.937Z,13.48
